sensor_id;sensor_type;location;lat;lon;timestamp;P1;durP1;ratioP1;P2;durP2;ratioP2
25125;SDS011;13106;50.808;5.670;2024-01-30T00:02:10;12.43;;;8.65;;
25125;SDS011;13106;50.808;5.670;2024-01-30T00:04:36;13.02;;;9.60;;
25125;SDS011;13106;50.808;5.670;2024-01-30T00:07:02;12.40;;;7.43;;
25125;SDS011;13106;50.808;5.670;2024-01-30T00:09:28;13.15;;;8.90;;
25125;SDS011;13106;50.808;5.670;2024-01-30T00:11:54;12.68;;;8.13;;
25125;SDS011;13106;50.808;5.670;2024-01-30T00:14:20;12.05;;;8.18;;
25125;SDS011;13106;50.808;5.670;2024-01-30T00:16:46;10.57;;;7.60;;
25125;SDS011;13106;50.808;5.670;2024-01-30T00:19:12;10.68;;;7.65;;
25125;SDS011;13106;50.808;5.670;2024-01-30T00:21:38;14.77;;;9.02;;
25125;SDS011;13106;50.808;5.670;2024-01-30T00:24:04;11.77;;;8.85;;
25125;SDS011;13106;50.808;5.670;2024-01-30T00:26:30;10.90;;;9.10;;
25125;SDS011;13106;50.808;5.670;2024-01-30T00:28:56;12.50;;;9.55;;
25125;SDS011;13106;50.808;5.670;2024-01-30T00:31:23;12.23;;;9.93;;
25125;SDS011;13106;50.808;5.670;2024-01-30T00:33:49;13.75;;;9.45;;
25125;SDS011;13106;50.808;5.670;2024-01-30T00:36:16;11.75;;;9.23;;
25125;SDS011;13106;50.808;5.670;2024-01-30T00:38:42;13.25;;;8.65;;
25125;SDS011;13106;50.808;5.670;2024-01-30T00:41:08;12.30;;;10.10;;
25125;SDS011;13106;50.808;5.670;2024-01-30T00:43:35;15.40;;;9.60;;
25125;SDS011;13106;50.808;5.670;2024-01-30T00:46:01;12.88;;;7.15;;
25125;SDS011;13106;50.808;5.670;2024-01-30T00:48:28;12.05;;;6.97;;
25125;SDS011;13106;50.808;5.670;2024-01-30T00:50:54;9.18;;;6.07;;
25125;SDS011;13106;50.808;5.670;2024-01-30T00:53:20;10.18;;;6.57;;
25125;SDS011;13106;50.808;5.670;2024-01-30T00:55:46;10.23;;;9.02;;
25125;SDS011;13106;50.808;5.670;2024-01-30T00:58:12;12.60;;;10.73;;
25125;SDS011;13106;50.808;5.670;2024-01-30T01:00:38;8.73;;;5.97;;
25125;SDS011;13106;50.808;5.670;2024-01-30T01:03:04;9.33;;;6.17;;
25125;SDS011;13106;50.808;5.670;2024-01-30T01:05:30;10.63;;;6.00;;
25125;SDS011;13106;50.808;5.670;2024-01-30T01:07:56;10.03;;;6.30;;
25125;SDS011;13106;50.808;5.670;2024-01-30T01:10:23;9.48;;;5.57;;
25125;SDS011;13106;50.808;5.670;2024-01-30T01:12:49;10.00;;;5.63;;
25125;SDS011;13106;50.808;5.670;2024-01-30T01:15:15;10.38;;;5.70;;
25125;SDS011;13106;50.808;5.670;2024-01-30T01:17:41;7.75;;;5.05;;
25125;SDS011;13106;50.808;5.670;2024-01-30T01:20:07;8.57;;;5.30;;
25125;SDS011;13106;50.808;5.670;2024-01-30T01:22:34;7.05;;;5.28;;
25125;SDS011;13106;50.808;5.670;2024-01-30T01:25:00;8.57;;;5.80;;
25125;SDS011;13106;50.808;5.670;2024-01-30T01:27:26;6.72;;;4.90;;
25125;SDS011;13106;50.808;5.670;2024-01-30T01:29:53;7.68;;;4.57;;
25125;SDS011;13106;50.808;5.670;2024-01-30T01:32:19;5.90;;;4.78;;
25125;SDS011;13106;50.808;5.670;2024-01-30T01:34:46;9.43;;;5.33;;
25125;SDS011;13106;50.808;5.670;2024-01-30T01:37:12;7.10;;;5.13;;
25125;SDS011;13106;50.808;5.670;2024-01-30T01:39:38;7.07;;;4.93;;
25125;SDS011;13106;50.808;5.670;2024-01-30T01:42:04;8.43;;;4.90;;
25125;SDS011;13106;50.808;5.670;2024-01-30T01:44:30;7.30;;;4.75;;
25125;SDS011;13106;50.808;5.670;2024-01-30T01:46:56;8.57;;;4.80;;
25125;SDS011;13106;50.808;5.670;2024-01-30T01:49:24;7.25;;;5.20;;
25125;SDS011;13106;50.808;5.670;2024-01-30T01:51:51;8.80;;;5.30;;
25125;SDS011;13106;50.808;5.670;2024-01-30T01:54:17;10.27;;;5.18;;
25125;SDS011;13106;50.808;5.670;2024-01-30T01:56:44;8.65;;;4.95;;
25125;SDS011;13106;50.808;5.670;2024-01-30T01:59:10;7.45;;;4.82;;
25125;SDS011;13106;50.808;5.670;2024-01-30T02:01:36;8.43;;;5.18;;
25125;SDS011;13106;50.808;5.670;2024-01-30T02:04:03;7.47;;;5.18;;
25125;SDS011;13106;50.808;5.670;2024-01-30T02:06:29;7.53;;;4.93;;
25125;SDS011;13106;50.808;5.670;2024-01-30T02:08:55;8.07;;;5.33;;
25125;SDS011;13106;50.808;5.670;2024-01-30T02:11:22;8.25;;;5.30;;
25125;SDS011;13106;50.808;5.670;2024-01-30T02:13:48;8.48;;;5.53;;
25125;SDS011;13106;50.808;5.670;2024-01-30T02:16:15;7.63;;;4.95;;
25125;SDS011;13106;50.808;5.670;2024-01-30T02:18:42;6.75;;;4.57;;
25125;SDS011;13106;50.808;5.670;2024-01-30T02:21:11;8.23;;;4.78;;
25125;SDS011;13106;50.808;5.670;2024-01-30T02:23:37;7.13;;;4.93;;
25125;SDS011;13106;50.808;5.670;2024-01-30T02:26:05;7.43;;;4.38;;
25125;SDS011;13106;50.808;5.670;2024-01-30T02:28:32;7.00;;;4.95;;
25125;SDS011;13106;50.808;5.670;2024-01-30T02:30:58;7.60;;;4.50;;
25125;SDS011;13106;50.808;5.670;2024-01-30T02:33:24;7.40;;;4.40;;
25125;SDS011;13106;50.808;5.670;2024-01-30T02:35:50;6.00;;;4.63;;
25125;SDS011;13106;50.808;5.670;2024-01-30T02:38:16;8.18;;;4.78;;
25125;SDS011;13106;50.808;5.670;2024-01-30T02:40:42;5.53;;;4.65;;
25125;SDS011;13106;50.808;5.670;2024-01-30T02:43:08;6.53;;;5.38;;
25125;SDS011;13106;50.808;5.670;2024-01-30T02:45:34;7.25;;;5.22;;
25125;SDS011;13106;50.808;5.670;2024-01-30T02:48:00;7.60;;;4.80;;
25125;SDS011;13106;50.808;5.670;2024-01-30T02:50:26;7.45;;;5.13;;
25125;SDS011;13106;50.808;5.670;2024-01-30T02:52:52;7.75;;;5.03;;
25125;SDS011;13106;50.808;5.670;2024-01-30T02:55:18;8.50;;;5.13;;
25125;SDS011;13106;50.808;5.670;2024-01-30T02:57:44;8.15;;;5.03;;
25125;SDS011;13106;50.808;5.670;2024-01-30T03:00:10;6.30;;;4.90;;
25125;SDS011;13106;50.808;5.670;2024-01-30T03:02:36;8.57;;;5.38;;
25125;SDS011;13106;50.808;5.670;2024-01-30T03:05:03;8.18;;;5.30;;
25125;SDS011;13106;50.808;5.670;2024-01-30T03:07:29;8.85;;;4.95;;
25125;SDS011;13106;50.808;5.670;2024-01-30T03:09:55;7.17;;;5.13;;
25125;SDS011;13106;50.808;5.670;2024-01-30T03:12:22;10.20;;;5.00;;
25125;SDS011;13106;50.808;5.670;2024-01-30T03:14:48;7.30;;;5.00;;
25125;SDS011;13106;50.808;5.670;2024-01-30T03:17:17;8.50;;;4.85;;
25125;SDS011;13106;50.808;5.670;2024-01-30T03:19:43;7.20;;;4.50;;
25125;SDS011;13106;50.808;5.670;2024-01-30T03:22:09;7.10;;;4.78;;
25125;SDS011;13106;50.808;5.670;2024-01-30T03:24:38;6.10;;;4.68;;
25125;SDS011;13106;50.808;5.670;2024-01-30T03:27:04;7.18;;;4.68;;
25125;SDS011;13106;50.808;5.670;2024-01-30T03:29:30;8.10;;;4.73;;
25125;SDS011;13106;50.808;5.670;2024-01-30T03:31:56;6.63;;;4.43;;
25125;SDS011;13106;50.808;5.670;2024-01-30T03:34:22;6.85;;;4.53;;
25125;SDS011;13106;50.808;5.670;2024-01-30T03:36:48;5.93;;;4.45;;
25125;SDS011;13106;50.808;5.670;2024-01-30T03:39:14;5.43;;;4.40;;
25125;SDS011;13106;50.808;5.670;2024-01-30T03:41:42;6.53;;;4.30;;
25125;SDS011;13106;50.808;5.670;2024-01-30T03:44:09;7.97;;;4.47;;
25125;SDS011;13106;50.808;5.670;2024-01-30T03:46:35;5.65;;;4.30;;
25125;SDS011;13106;50.808;5.670;2024-01-30T03:49:01;7.10;;;4.38;;
25125;SDS011;13106;50.808;5.670;2024-01-30T03:51:27;8.15;;;4.43;;
25125;SDS011;13106;50.808;5.670;2024-01-30T03:53:53;6.65;;;4.40;;
25125;SDS011;13106;50.808;5.670;2024-01-30T03:56:19;6.03;;;4.13;;
25125;SDS011;13106;50.808;5.670;2024-01-30T03:58:45;7.07;;;4.37;;
25125;SDS011;13106;50.808;5.670;2024-01-30T04:01:14;8.07;;;5.10;;
25125;SDS011;13106;50.808;5.670;2024-01-30T04:03:41;7.35;;;5.10;;
25125;SDS011;13106;50.808;5.670;2024-01-30T04:06:08;6.60;;;5.03;;
25125;SDS011;13106;50.808;5.670;2024-01-30T04:08:34;7.00;;;5.13;;
25125;SDS011;13106;50.808;5.670;2024-01-30T04:11:04;6.15;;;5.00;;
25125;SDS011;13106;50.808;5.670;2024-01-30T04:13:31;6.38;;;4.28;;
25125;SDS011;13106;50.808;5.670;2024-01-30T04:15:58;6.47;;;4.38;;
25125;SDS011;13106;50.808;5.670;2024-01-30T04:18:25;9.30;;;5.40;;
25125;SDS011;13106;50.808;5.670;2024-01-30T04:20:51;5.70;;;5.10;;
25125;SDS011;13106;50.808;5.670;2024-01-30T04:23:17;7.68;;;5.18;;
25125;SDS011;13106;50.808;5.670;2024-01-30T04:25:43;6.20;;;5.03;;
25125;SDS011;13106;50.808;5.670;2024-01-30T04:28:09;8.75;;;5.00;;
25125;SDS011;13106;50.808;5.670;2024-01-30T04:30:38;6.45;;;4.50;;
25125;SDS011;13106;50.808;5.670;2024-01-30T04:33:04;6.18;;;4.70;;
25125;SDS011;13106;50.808;5.670;2024-01-30T04:35:31;6.55;;;4.70;;
25125;SDS011;13106;50.808;5.670;2024-01-30T04:37:57;7.78;;;5.00;;
25125;SDS011;13106;50.808;5.670;2024-01-30T04:40:23;5.60;;;4.70;;
25125;SDS011;13106;50.808;5.670;2024-01-30T04:42:49;7.60;;;5.32;;
25125;SDS011;13106;50.808;5.670;2024-01-30T04:45:15;6.07;;;4.90;;
25125;SDS011;13106;50.808;5.670;2024-01-30T04:47:41;5.75;;;4.40;;
25125;SDS011;13106;50.808;5.670;2024-01-30T04:50:08;5.85;;;4.30;;
25125;SDS011;13106;50.808;5.670;2024-01-30T04:52:34;6.40;;;4.30;;
25125;SDS011;13106;50.808;5.670;2024-01-30T04:55:00;6.18;;;4.07;;
25125;SDS011;13106;50.808;5.670;2024-01-30T04:57:26;6.13;;;4.57;;
25125;SDS011;13106;50.808;5.670;2024-01-30T04:59:52;8.18;;;5.13;;
25125;SDS011;13106;50.808;5.670;2024-01-30T05:02:18;6.93;;;4.82;;
25125;SDS011;13106;50.808;5.670;2024-01-30T05:04:44;6.70;;;5.25;;
25125;SDS011;13106;50.808;5.670;2024-01-30T05:07:10;6.32;;;4.95;;
25125;SDS011;13106;50.808;5.670;2024-01-30T05:09:36;7.60;;;4.90;;
25125;SDS011;13106;50.808;5.670;2024-01-30T05:12:02;5.88;;;4.90;;
25125;SDS011;13106;50.808;5.670;2024-01-30T05:14:29;7.18;;;4.82;;
25125;SDS011;13106;50.808;5.670;2024-01-30T05:16:54;6.57;;;4.72;;
25125;SDS011;13106;50.808;5.670;2024-01-30T05:19:20;9.07;;;5.30;;
25125;SDS011;13106;50.808;5.670;2024-01-30T05:21:48;7.32;;;5.50;;
25125;SDS011;13106;50.808;5.670;2024-01-30T05:24:14;8.27;;;5.68;;
25125;SDS011;13106;50.808;5.670;2024-01-30T05:26:40;7.47;;;5.28;;
25125;SDS011;13106;50.808;5.670;2024-01-30T05:29:06;6.30;;;4.90;;
25125;SDS011;13106;50.808;5.670;2024-01-30T05:31:33;6.13;;;4.82;;
25125;SDS011;13106;50.808;5.670;2024-01-30T05:33:59;6.65;;;4.55;;
25125;SDS011;13106;50.808;5.670;2024-01-30T05:36:25;6.38;;;4.72;;
25125;SDS011;13106;50.808;5.670;2024-01-30T05:38:51;7.93;;;4.75;;
25125;SDS011;13106;50.808;5.670;2024-01-30T05:41:17;6.90;;;4.70;;
25125;SDS011;13106;50.808;5.670;2024-01-30T05:43:44;6.93;;;4.72;;
25125;SDS011;13106;50.808;5.670;2024-01-30T05:46:10;7.13;;;4.60;;
25125;SDS011;13106;50.808;5.670;2024-01-30T05:48:36;9.05;;;4.97;;
25125;SDS011;13106;50.808;5.670;2024-01-30T05:51:02;6.65;;;4.80;;
25125;SDS011;13106;50.808;5.670;2024-01-30T05:53:29;7.55;;;4.97;;
25125;SDS011;13106;50.808;5.670;2024-01-30T05:55:55;6.35;;;4.30;;
25125;SDS011;13106;50.808;5.670;2024-01-30T05:58:21;5.30;;;4.00;;
25125;SDS011;13106;50.808;5.670;2024-01-30T06:00:47;6.65;;;4.32;;
25125;SDS011;13106;50.808;5.670;2024-01-30T06:03:13;5.90;;;4.28;;
25125;SDS011;13106;50.808;5.670;2024-01-30T06:05:39;5.88;;;4.25;;
25125;SDS011;13106;50.808;5.670;2024-01-30T06:08:05;5.53;;;3.80;;
25125;SDS011;13106;50.808;5.670;2024-01-30T06:10:31;8.70;;;4.07;;
25125;SDS011;13106;50.808;5.670;2024-01-30T06:12:57;5.13;;;4.10;;
25125;SDS011;13106;50.808;5.670;2024-01-30T06:15:23;6.30;;;4.35;;
25125;SDS011;13106;50.808;5.670;2024-01-30T06:17:49;8.43;;;4.60;;
25125;SDS011;13106;50.808;5.670;2024-01-30T06:20:15;5.13;;;3.92;;
25125;SDS011;13106;50.808;5.670;2024-01-30T06:22:41;7.47;;;4.35;;
25125;SDS011;13106;50.808;5.670;2024-01-30T06:25:07;5.85;;;4.15;;
25125;SDS011;13106;50.808;5.670;2024-01-30T06:27:33;6.32;;;4.35;;
25125;SDS011;13106;50.808;5.670;2024-01-30T06:29:59;5.23;;;4.00;;
25125;SDS011;13106;50.808;5.670;2024-01-30T06:32:25;6.53;;;3.72;;
25125;SDS011;13106;50.808;5.670;2024-01-30T06:34:53;5.57;;;3.95;;
25125;SDS011;13106;50.808;5.670;2024-01-30T06:37:19;7.20;;;4.45;;
25125;SDS011;13106;50.808;5.670;2024-01-30T06:39:45;6.03;;;4.38;;
25125;SDS011;13106;50.808;5.670;2024-01-30T06:42:11;6.72;;;4.00;;
25125;SDS011;13106;50.808;5.670;2024-01-30T06:44:37;6.40;;;4.80;;
25125;SDS011;13106;50.808;5.670;2024-01-30T06:47:03;7.60;;;4.80;;
25125;SDS011;13106;50.808;5.670;2024-01-30T06:49:29;6.72;;;4.60;;
25125;SDS011;13106;50.808;5.670;2024-01-30T06:51:56;7.57;;;4.75;;
25125;SDS011;13106;50.808;5.670;2024-01-30T06:54:22;8.70;;;4.67;;
25125;SDS011;13106;50.808;5.670;2024-01-30T06:56:48;6.20;;;4.13;;
25125;SDS011;13106;50.808;5.670;2024-01-30T06:59:14;6.17;;;4.00;;
25125;SDS011;13106;50.808;5.670;2024-01-30T07:01:40;6.20;;;4.00;;
25125;SDS011;13106;50.808;5.670;2024-01-30T07:04:06;7.17;;;4.23;;
25125;SDS011;13106;50.808;5.670;2024-01-30T07:06:32;6.53;;;4.35;;
25125;SDS011;13106;50.808;5.670;2024-01-30T07:08:58;7.45;;;4.38;;
25125;SDS011;13106;50.808;5.670;2024-01-30T07:11:24;8.93;;;4.75;;
25125;SDS011;13106;50.808;5.670;2024-01-30T07:13:51;8.05;;;4.57;;
25125;SDS011;13106;50.808;5.670;2024-01-30T07:16:17;8.32;;;4.95;;
25125;SDS011;13106;50.808;5.670;2024-01-30T07:18:43;8.43;;;4.38;;
25125;SDS011;13106;50.808;5.670;2024-01-30T07:21:10;6.97;;;4.45;;
25125;SDS011;13106;50.808;5.670;2024-01-30T07:23:36;7.20;;;4.22;;
25125;SDS011;13106;50.808;5.670;2024-01-30T07:26:04;9.07;;;4.90;;
25125;SDS011;13106;50.808;5.670;2024-01-30T07:28:30;8.10;;;5.10;;
25125;SDS011;13106;50.808;5.670;2024-01-30T07:30:56;7.70;;;5.20;;
25125;SDS011;13106;50.808;5.670;2024-01-30T07:33:22;8.95;;;5.53;;
25125;SDS011;13106;50.808;5.670;2024-01-30T07:35:48;9.82;;;6.40;;
25125;SDS011;13106;50.808;5.670;2024-01-30T07:38:14;8.05;;;5.63;;
25125;SDS011;13106;50.808;5.670;2024-01-30T07:40:40;9.48;;;5.70;;
25125;SDS011;13106;50.808;5.670;2024-01-30T07:43:06;8.70;;;5.57;;
25125;SDS011;13106;50.808;5.670;2024-01-30T07:45:33;8.57;;;5.55;;
25125;SDS011;13106;50.808;5.670;2024-01-30T07:47:59;7.35;;;5.68;;
25125;SDS011;13106;50.808;5.670;2024-01-30T07:50:25;9.80;;;5.60;;
25125;SDS011;13106;50.808;5.670;2024-01-30T07:52:51;9.05;;;5.63;;
25125;SDS011;13106;50.808;5.670;2024-01-30T07:55:20;9.05;;;5.68;;
25125;SDS011;13106;50.808;5.670;2024-01-30T07:57:52;8.77;;;4.97;;
25125;SDS011;13106;50.808;5.670;2024-01-30T08:00:19;7.57;;;4.67;;
25125;SDS011;13106;50.808;5.670;2024-01-30T08:02:45;7.75;;;4.78;;
25125;SDS011;13106;50.808;5.670;2024-01-30T08:05:11;7.47;;;5.03;;
25125;SDS011;13106;50.808;5.670;2024-01-30T08:07:39;7.18;;;5.00;;
25125;SDS011;13106;50.808;5.670;2024-01-30T08:10:05;7.40;;;5.07;;
25125;SDS011;13106;50.808;5.670;2024-01-30T08:12:31;8.07;;;5.28;;
25125;SDS011;13106;50.808;5.670;2024-01-30T08:14:57;9.15;;;4.85;;
25125;SDS011;13106;50.808;5.670;2024-01-30T08:17:23;7.67;;;5.00;;
25125;SDS011;13106;50.808;5.670;2024-01-30T08:19:49;10.30;;;5.22;;
25125;SDS011;13106;50.808;5.670;2024-01-30T08:22:16;11.13;;;5.25;;
25125;SDS011;13106;50.808;5.670;2024-01-30T08:24:42;8.20;;;4.97;;
25125;SDS011;13106;50.808;5.670;2024-01-30T08:27:08;10.37;;;5.40;;
25125;SDS011;13106;50.808;5.670;2024-01-30T08:29:35;8.48;;;5.35;;
25125;SDS011;13106;50.808;5.670;2024-01-30T08:32:01;7.82;;;5.20;;
25125;SDS011;13106;50.808;5.670;2024-01-30T08:34:27;6.77;;;5.00;;
25125;SDS011;13106;50.808;5.670;2024-01-30T08:36:53;9.97;;;5.10;;
25125;SDS011;13106;50.808;5.670;2024-01-30T08:39:19;11.27;;;5.30;;
25125;SDS011;13106;50.808;5.670;2024-01-30T08:41:45;7.60;;;4.80;;
25125;SDS011;13106;50.808;5.670;2024-01-30T08:44:11;7.97;;;4.80;;
25125;SDS011;13106;50.808;5.670;2024-01-30T08:46:37;9.88;;;5.10;;
25125;SDS011;13106;50.808;5.670;2024-01-30T08:49:03;6.35;;;4.90;;
25125;SDS011;13106;50.808;5.670;2024-01-30T08:51:30;10.63;;;5.25;;
25125;SDS011;13106;50.808;5.670;2024-01-30T08:53:56;9.27;;;4.80;;
25125;SDS011;13106;50.808;5.670;2024-01-30T08:56:22;8.73;;;5.22;;
25125;SDS011;13106;50.808;5.670;2024-01-30T08:58:48;7.77;;;4.97;;
25125;SDS011;13106;50.808;5.670;2024-01-30T09:01:14;12.20;;;5.43;;
25125;SDS011;13106;50.808;5.670;2024-01-30T09:03:40;10.43;;;5.27;;
25125;SDS011;13106;50.808;5.670;2024-01-30T09:06:08;10.05;;;5.43;;
25125;SDS011;13106;50.808;5.670;2024-01-30T09:08:35;12.43;;;6.63;;
25125;SDS011;13106;50.808;5.670;2024-01-30T09:11:01;10.47;;;6.57;;
25125;SDS011;13106;50.808;5.670;2024-01-30T09:13:27;13.68;;;6.30;;
25125;SDS011;13106;50.808;5.670;2024-01-30T09:15:53;9.32;;;5.40;;
25125;SDS011;13106;50.808;5.670;2024-01-30T09:18:19;11.43;;;6.35;;
25125;SDS011;13106;50.808;5.670;2024-01-30T09:20:45;9.52;;;5.60;;
25125;SDS011;13106;50.808;5.670;2024-01-30T09:23:12;9.47;;;5.07;;
25125;SDS011;13106;50.808;5.670;2024-01-30T09:25:38;11.50;;;5.20;;
25125;SDS011;13106;50.808;5.670;2024-01-30T09:28:05;9.02;;;5.00;;
25125;SDS011;13106;50.808;5.670;2024-01-30T09:30:31;11.90;;;5.20;;
25125;SDS011;13106;50.808;5.670;2024-01-30T09:32:57;11.55;;;5.50;;
25125;SDS011;13106;50.808;5.670;2024-01-30T09:35:23;9.63;;;5.43;;
25125;SDS011;13106;50.808;5.670;2024-01-30T09:37:49;10.00;;;5.55;;
25125;SDS011;13106;50.808;5.670;2024-01-30T09:40:17;10.07;;;5.55;;
25125;SDS011;13106;50.808;5.670;2024-01-30T09:42:44;8.07;;;5.18;;
25125;SDS011;13106;50.808;5.670;2024-01-30T09:45:11;7.18;;;5.13;;
25125;SDS011;13106;50.808;5.670;2024-01-30T09:47:40;11.00;;;6.10;;
25125;SDS011;13106;50.808;5.670;2024-01-30T09:50:10;7.47;;;4.95;;
25125;SDS011;13106;50.808;5.670;2024-01-30T09:52:36;8.35;;;5.15;;
25125;SDS011;13106;50.808;5.670;2024-01-30T09:55:03;9.82;;;5.10;;
25125;SDS011;13106;50.808;5.670;2024-01-30T09:57:29;9.73;;;5.45;;
25125;SDS011;13106;50.808;5.670;2024-01-30T09:59:55;10.23;;;5.38;;
25125;SDS011;13106;50.808;5.670;2024-01-30T10:02:21;10.73;;;5.45;;
25125;SDS011;13106;50.808;5.670;2024-01-30T10:04:48;9.47;;;5.43;;
25125;SDS011;13106;50.808;5.670;2024-01-30T10:07:14;8.30;;;5.60;;
25125;SDS011;13106;50.808;5.670;2024-01-30T10:09:41;11.15;;;5.38;;
25125;SDS011;13106;50.808;5.670;2024-01-30T10:12:07;8.95;;;5.20;;
25125;SDS011;13106;50.808;5.670;2024-01-30T10:14:33;8.00;;;5.40;;
25125;SDS011;13106;50.808;5.670;2024-01-30T10:17:00;9.52;;;5.40;;
25125;SDS011;13106;50.808;5.670;2024-01-30T10:19:26;8.85;;;5.43;;
25125;SDS011;13106;50.808;5.670;2024-01-30T10:21:52;10.55;;;5.35;;
25125;SDS011;13106;50.808;5.670;2024-01-30T10:24:18;9.00;;;5.40;;
25125;SDS011;13106;50.808;5.670;2024-01-30T10:26:49;7.78;;;5.60;;
25125;SDS011;13106;50.808;5.670;2024-01-30T10:29:16;11.73;;;5.57;;
25125;SDS011;13106;50.808;5.670;2024-01-30T10:31:42;11.20;;;6.05;;
25125;SDS011;13106;50.808;5.670;2024-01-30T10:34:08;10.85;;;5.18;;
25125;SDS011;13106;50.808;5.670;2024-01-30T10:36:36;11.30;;;5.80;;
25125;SDS011;13106;50.808;5.670;2024-01-30T10:39:04;10.05;;;5.32;;
25125;SDS011;13106;50.808;5.670;2024-01-30T10:41:33;9.20;;;5.43;;
25125;SDS011;13106;50.808;5.670;2024-01-30T10:44:07;11.07;;;5.72;;
25125;SDS011;13106;50.808;5.670;2024-01-30T10:46:34;10.37;;;5.90;;
25125;SDS011;13106;50.808;5.670;2024-01-30T10:49:01;11.47;;;5.57;;
25125;SDS011;13106;50.808;5.670;2024-01-30T10:51:27;10.33;;;5.43;;
25125;SDS011;13106;50.808;5.670;2024-01-30T10:53:53;12.43;;;6.00;;
25125;SDS011;13106;50.808;5.670;2024-01-30T10:56:20;10.55;;;5.90;;
25125;SDS011;13106;50.808;5.670;2024-01-30T10:58:48;10.60;;;6.00;;
25125;SDS011;13106;50.808;5.670;2024-01-30T11:01:14;12.80;;;6.32;;
25125;SDS011;13106;50.808;5.670;2024-01-30T11:03:40;10.70;;;6.18;;
25125;SDS011;13106;50.808;5.670;2024-01-30T11:06:10;12.75;;;6.43;;
25125;SDS011;13106;50.808;5.670;2024-01-30T11:08:36;9.82;;;6.05;;
25125;SDS011;13106;50.808;5.670;2024-01-30T11:11:02;12.60;;;6.40;;
25125;SDS011;13106;50.808;5.670;2024-01-30T11:28:44;12.30;;;6.22;;
25125;SDS011;13106;50.808;5.670;2024-01-30T11:31:18;14.52;;;6.65;;
25125;SDS011;13106;50.808;5.670;2024-01-30T11:33:44;13.18;;;6.43;;
25125;SDS011;13106;50.808;5.670;2024-01-30T11:36:10;12.95;;;6.63;;
25125;SDS011;13106;50.808;5.670;2024-01-30T11:38:39;12.00;;;6.38;;
25125;SDS011;13106;50.808;5.670;2024-01-30T11:41:05;12.02;;;6.38;;
25125;SDS011;13106;50.808;5.670;2024-01-30T11:43:31;12.03;;;6.93;;
25125;SDS011;13106;50.808;5.670;2024-01-30T11:45:58;12.43;;;6.50;;
25125;SDS011;13106;50.808;5.670;2024-01-30T11:48:24;12.30;;;6.87;;
25125;SDS011;13106;50.808;5.670;2024-01-30T11:50:52;14.85;;;6.90;;
25125;SDS011;13106;50.808;5.670;2024-01-30T11:53:18;11.23;;;6.13;;
25125;SDS011;13106;50.808;5.670;2024-01-30T11:55:49;14.32;;;7.18;;
25125;SDS011;13106;50.808;5.670;2024-01-30T11:58:15;13.65;;;7.05;;
25125;SDS011;13106;50.808;5.670;2024-01-30T12:00:41;12.38;;;6.47;;
25125;SDS011;13106;50.808;5.670;2024-01-30T12:03:07;12.88;;;6.38;;
25125;SDS011;13106;50.808;5.670;2024-01-30T12:05:33;10.88;;;6.68;;
25125;SDS011;13106;50.808;5.670;2024-01-30T12:08:00;12.27;;;6.88;;
25125;SDS011;13106;50.808;5.670;2024-01-30T12:10:26;13.48;;;7.38;;
25125;SDS011;13106;50.808;5.670;2024-01-30T12:12:53;12.82;;;7.00;;
25125;SDS011;13106;50.808;5.670;2024-01-30T12:15:21;13.20;;;6.85;;
25125;SDS011;13106;50.808;5.670;2024-01-30T12:17:47;13.73;;;7.03;;
25125;SDS011;13106;50.808;5.670;2024-01-30T12:20:14;13.30;;;6.57;;
25125;SDS011;13106;50.808;5.670;2024-01-30T12:22:41;11.93;;;7.18;;
25125;SDS011;13106;50.808;5.670;2024-01-30T12:25:11;13.93;;;7.20;;
25125;SDS011;13106;50.808;5.670;2024-01-30T12:27:38;11.90;;;6.57;;
25125;SDS011;13106;50.808;5.670;2024-01-30T12:30:08;13.23;;;6.90;;
25125;SDS011;13106;50.808;5.670;2024-01-30T12:32:35;13.13;;;7.20;;
25125;SDS011;13106;50.808;5.670;2024-01-30T12:35:01;11.55;;;6.28;;
25125;SDS011;13106;50.808;5.670;2024-01-30T12:37:27;13.63;;;7.18;;
25125;SDS011;13106;50.808;5.670;2024-01-30T12:39:54;13.27;;;6.90;;
25125;SDS011;13106;50.808;5.670;2024-01-30T12:42:20;12.43;;;6.97;;
25125;SDS011;13106;50.808;5.670;2024-01-30T12:44:47;12.32;;;7.05;;
25125;SDS011;13106;50.808;5.670;2024-01-30T12:47:13;11.23;;;7.03;;
25125;SDS011;13106;50.808;5.670;2024-01-30T12:49:41;11.07;;;6.35;;
25125;SDS011;13106;50.808;5.670;2024-01-30T12:52:08;12.98;;;6.70;;
25125;SDS011;13106;50.808;5.670;2024-01-30T12:54:34;11.75;;;6.28;;
25125;SDS011;13106;50.808;5.670;2024-01-30T12:57:00;10.82;;;6.72;;
25125;SDS011;13106;50.808;5.670;2024-01-30T12:59:26;10.88;;;6.50;;
25125;SDS011;13106;50.808;5.670;2024-01-30T13:01:52;13.38;;;7.38;;
25125;SDS011;13106;50.808;5.670;2024-01-30T13:04:18;14.82;;;7.20;;
25125;SDS011;13106;50.808;5.670;2024-01-30T13:06:44;13.60;;;7.57;;
25125;SDS011;13106;50.808;5.670;2024-01-30T13:09:10;12.95;;;6.90;;
25125;SDS011;13106;50.808;5.670;2024-01-30T13:11:37;15.07;;;7.72;;
25125;SDS011;13106;50.808;5.670;2024-01-30T13:14:03;14.55;;;7.35;;
25125;SDS011;13106;50.808;5.670;2024-01-30T13:16:29;16.58;;;7.65;;
25125;SDS011;13106;50.808;5.670;2024-01-30T13:18:55;11.27;;;7.05;;
25125;SDS011;13106;50.808;5.670;2024-01-30T13:21:21;12.68;;;8.02;;
25125;SDS011;13106;50.808;5.670;2024-01-30T13:23:47;16.02;;;7.57;;
25125;SDS011;13106;50.808;5.670;2024-01-30T13:26:18;13.10;;;7.83;;
25125;SDS011;13106;50.808;5.670;2024-01-30T13:28:44;13.90;;;8.45;;
25125;SDS011;13106;50.808;5.670;2024-01-30T13:31:10;15.85;;;8.43;;
25125;SDS011;13106;50.808;5.670;2024-01-30T13:33:36;15.15;;;8.20;;
25125;SDS011;13106;50.808;5.670;2024-01-30T13:36:02;13.88;;;8.00;;
25125;SDS011;13106;50.808;5.670;2024-01-30T13:38:28;16.77;;;9.00;;
25125;SDS011;13106;50.808;5.670;2024-01-30T13:40:54;14.05;;;8.13;;
25125;SDS011;13106;50.808;5.670;2024-01-30T13:43:20;13.95;;;7.28;;
25125;SDS011;13106;50.808;5.670;2024-01-30T13:45:46;12.23;;;7.17;;
25125;SDS011;13106;50.808;5.670;2024-01-30T13:48:12;10.60;;;6.30;;
25125;SDS011;13106;50.808;5.670;2024-01-30T13:50:38;10.97;;;5.40;;
25125;SDS011;13106;50.808;5.670;2024-01-30T13:53:04;10.20;;;5.38;;
25125;SDS011;13106;50.808;5.670;2024-01-30T13:55:30;12.68;;;8.10;;
25125;SDS011;13106;50.808;5.670;2024-01-30T13:57:56;10.65;;;7.15;;
25125;SDS011;13106;50.808;5.670;2024-01-30T14:00:22;10.88;;;4.82;;
25125;SDS011;13106;50.808;5.670;2024-01-30T14:02:50;10.77;;;4.70;;
25125;SDS011;13106;50.808;5.670;2024-01-30T14:05:17;10.07;;;4.38;;
25125;SDS011;13106;50.808;5.670;2024-01-30T14:07:43;10.77;;;4.35;;
25125;SDS011;13106;50.808;5.670;2024-01-30T14:10:10;9.60;;;4.43;;
25125;SDS011;13106;50.808;5.670;2024-01-30T14:12:36;9.88;;;4.15;;
25125;SDS011;13106;50.808;5.670;2024-01-30T14:15:02;11.30;;;4.63;;
25125;SDS011;13106;50.808;5.670;2024-01-30T14:17:28;12.00;;;4.22;;
25125;SDS011;13106;50.808;5.670;2024-01-30T14:19:54;9.18;;;3.90;;
25125;SDS011;13106;50.808;5.670;2024-01-30T14:22:20;7.30;;;3.42;;
25125;SDS011;13106;50.808;5.670;2024-01-30T14:24:46;9.90;;;3.67;;
25125;SDS011;13106;50.808;5.670;2024-01-30T14:27:12;8.05;;;3.25;;
25125;SDS011;13106;50.808;5.670;2024-01-30T14:29:38;7.60;;;3.92;;
25125;SDS011;13106;50.808;5.670;2024-01-30T14:32:06;8.53;;;3.10;;
25125;SDS011;13106;50.808;5.670;2024-01-30T14:34:32;5.03;;;2.65;;
25125;SDS011;13106;50.808;5.670;2024-01-30T14:36:58;7.45;;;2.70;;
25125;SDS011;13106;50.808;5.670;2024-01-30T14:39:24;6.40;;;2.50;;
25125;SDS011;13106;50.808;5.670;2024-01-30T14:41:51;5.35;;;2.40;;
25125;SDS011;13106;50.808;5.670;2024-01-30T14:44:17;3.63;;;2.10;;
25125;SDS011;13106;50.808;5.670;2024-01-30T14:46:43;6.55;;;2.40;;
25125;SDS011;13106;50.808;5.670;2024-01-30T14:49:09;4.25;;;2.08;;
25125;SDS011;13106;50.808;5.670;2024-01-30T14:51:35;3.53;;;1.98;;
25125;SDS011;13106;50.808;5.670;2024-01-30T14:54:01;5.03;;;1.95;;